createdAt,value
2023-02-02T00:00:37.015Z,41.60
2023-02-02T00:01:32.734Z,41.44
2023-02-02T00:02:25.340Z,41.94
2023-02-02T00:03:18.389Z,41.70
2023-02-02T00:04:18.746Z,41.46
2023-02-02T00:05:12.186Z,41.40
2023-02-02T00:06:07.813Z,41.73
2023-02-02T00:07:01.072Z,41.92
2023-02-02T00:07:56.272Z,41.65
2023-02-02T00:08:49.246Z,41.71
2023-02-02T00:09:44.402Z,41.68
2023-02-02T00:10:36.970Z,41.29
2023-02-02T00:11:32.266Z,41.69
2023-02-02T00:12:24.815Z,41.38
2023-02-02T00:13:20.501Z,41.31
2023-02-02T00:14:13.454Z,41.64
2023-02-02T00:15:09.845Z,41.80
2023-02-02T00:16:40.867Z,41.94
2023-02-02T00:17:38.623Z,41.59
2023-02-02T00:18:31.190Z,41.78
2023-02-02T00:19:28.329Z,41.73
2023-02-02T00:20:22.346Z,41.50
2023-02-02T00:21:17.477Z,41.83
2023-02-02T00:22:10.041Z,41.59
2023-02-02T00:23:05.565Z,41.84
2023-02-02T00:23:58.137Z,41.76
2023-02-02T00:24:53.301Z,41.78
2023-02-02T00:25:45.870Z,41.82
2023-02-02T00:26:42.540Z,41.49
2023-02-02T00:27:35.165Z,41.44
2023-02-02T00:28:31.258Z,41.40
2023-02-02T00:29:25.671Z,41.72
2023-02-02T00:30:21.110Z,41.92
2023-02-02T00:31:13.806Z,41.29
2023-02-02T00:32:09.713Z,41.62
2023-02-02T00:33:04.916Z,41.54
2023-02-02T00:34:00.572Z,41.67
2023-02-02T00:34:54.485Z,41.56
2023-02-02T00:35:49.647Z,41.37
2023-02-02T00:36:42.835Z,41.54
2023-02-02T00:37:38.026Z,41.84
2023-02-02T00:38:30.614Z,41.45
2023-02-02T00:39:28.223Z,41.66
2023-02-02T00:40:20.803Z,41.83
2023-02-02T00:41:13.403Z,41.53
2023-02-02T00:42:09.334Z,41.47
2023-02-02T00:43:02.109Z,41.30
2023-02-02T00:44:09.504Z,41.87
2023-02-02T00:45:20.056Z,41.54
2023-02-02T00:46:15.083Z,41.86
2023-02-02T00:47:07.708Z,41.88
2023-02-02T00:48:02.942Z,41.60
2023-02-02T00:48:58.098Z,41.68
2023-02-02T00:49:54.042Z,41.94
2023-02-02T00:50:46.620Z,41.73
2023-02-02T00:51:42.004Z,41.61
2023-02-02T00:52:34.574Z,41.71
2023-02-02T00:53:29.739Z,41.68
2023-02-02T00:54:22.317Z,41.74
2023-02-02T00:55:18.417Z,41.46
2023-02-02T00:56:12.004Z,41.73
2023-02-02T00:57:07.422Z,41.74
2023-02-02T00:58:00.126Z,41.58
2023-02-02T00:58:55.348Z,41.71
2023-02-02T00:59:47.928Z,41.87
2023-02-02T01:00:43.141Z,41.71
2023-02-02T01:01:35.753Z,41.58
2023-02-02T01:02:31.114Z,41.49
2023-02-02T01:03:23.734Z,41.72
2023-02-02T01:04:21.489Z,41.39
2023-02-02T01:05:14.218Z,41.84
2023-02-02T01:06:09.547Z,41.92
2023-02-02T01:07:02.146Z,41.47
2023-02-02T01:07:58.538Z,41.88
2023-02-02T01:08:51.139Z,41.54
2023-02-02T01:09:46.305Z,41.56
2023-02-02T01:10:38.883Z,41.98
2023-02-02T01:11:34.082Z,41.75
2023-02-02T01:12:26.681Z,41.58
2023-02-02T01:13:21.861Z,41.43
2023-02-02T01:14:14.481Z,41.62
2023-02-02T01:15:10.986Z,41.28
2023-02-02T01:16:04.656Z,41.45
2023-02-02T01:16:59.920Z,41.73
2023-02-02T01:17:52.494Z,41.50
2023-02-02T01:18:47.776Z,41.58
2023-02-02T01:19:43.013Z,41.20
2023-02-02T01:20:38.202Z,41.70
2023-02-02T01:21:31.404Z,41.49
2023-02-02T01:22:26.642Z,41.41
2023-02-02T01:23:19.196Z,41.25
2023-02-02T01:24:14.570Z,41.81
2023-02-02T01:25:07.663Z,41.32
2023-02-02T01:26:03.983Z,41.72
2023-02-02T01:26:57.897Z,41.36
2023-02-02T01:27:53.133Z,41.38
2023-02-02T01:28:46.666Z,41.22
2023-02-02T01:29:41.871Z,41.42
2023-02-02T01:30:34.461Z,41.60
2023-02-02T01:31:29.685Z,41.63
2023-02-02T01:32:22.266Z,41.37
2023-02-02T01:33:14.876Z,41.69
2023-02-02T01:34:10.049Z,41.51
2023-02-02T01:35:06.091Z,41.38
2023-02-02T01:36:01.260Z,41.65
2023-02-02T01:36:53.857Z,41.78
2023-02-02T01:37:49.011Z,41.36
2023-02-02T01:38:42.523Z,41.45
2023-02-02T01:39:37.707Z,41.58
2023-02-02T01:40:30.296Z,41.68
2023-02-02T01:41:28.115Z,41.56
2023-02-02T01:42:22.335Z,41.29
2023-02-02T01:43:25.846Z,41.50
2023-02-02T01:44:48.365Z,41.34
2023-02-02T01:45:43.577Z,41.67
2023-02-02T01:46:37.769Z,41.66
2023-02-02T01:47:35.342Z,41.64
2023-02-02T01:48:31.229Z,41.79
2023-02-02T01:49:26.466Z,41.42
2023-02-02T01:50:23.149Z,41.68
2023-02-02T01:51:21.906Z,41.71
2023-02-02T01:52:15.542Z,41.71
2023-02-02T01:53:10.821Z,41.49
2023-02-02T01:54:03.799Z,41.78
2023-02-02T01:55:01.803Z,41.49
2023-02-02T01:55:54.734Z,41.37
2023-02-02T01:56:52.761Z,41.51
2023-02-02T01:57:47.483Z,41.50
2023-02-02T01:58:43.762Z,41.64
2023-02-02T01:59:36.607Z,41.30
2023-02-02T02:00:32.091Z,41.66
2023-02-02T02:01:25.303Z,41.40
2023-02-02T02:02:20.758Z,41.62
2023-02-02T02:03:15.734Z,41.41
2023-02-02T02:04:11.843Z,41.78
2023-02-02T02:05:06.226Z,41.95
2023-02-02T02:06:08.018Z,41.68
2023-02-02T02:07:02.107Z,41.75
2023-02-02T02:08:12.195Z,41.85
2023-02-02T02:09:06.620Z,41.88
2023-02-02T02:10:01.812Z,41.63
2023-02-02T02:10:55.430Z,41.78
2023-02-02T02:11:50.846Z,41.58
2023-02-02T02:12:43.615Z,41.53
2023-02-02T02:13:52.691Z,41.58
2023-02-02T02:15:03.704Z,41.46
2023-02-02T02:16:15.627Z,41.67
2023-02-02T02:17:28.277Z,41.45
2023-02-02T02:18:28.872Z,41.68
2023-02-02T02:20:02.447Z,41.55
2023-02-02T02:21:45.026Z,41.80
2023-02-02T02:23:18.530Z,41.71
2023-02-02T02:24:52.436Z,41.87
2023-02-02T02:26:13.026Z,42.02
2023-02-02T02:27:28.995Z,41.77
2023-02-02T02:28:40.113Z,41.88
2023-02-02T02:29:50.273Z,41.42
2023-02-02T02:30:59.147Z,41.61
2023-02-02T02:32:10.040Z,41.78
2023-02-02T02:33:04.586Z,41.75
2023-02-02T02:34:02.464Z,41.49
2023-02-02T02:34:58.690Z,41.78
2023-02-02T02:36:01.142Z,41.87
2023-02-02T02:36:57.360Z,41.37
2023-02-02T02:37:56.258Z,41.67
2023-02-02T02:38:52.826Z,41.34
2023-02-02T02:39:52.674Z,41.77
2023-02-02T02:40:48.283Z,41.42
2023-02-02T02:41:47.830Z,41.49
2023-02-02T02:42:44.367Z,41.68
2023-02-02T02:43:43.536Z,41.58
2023-02-02T02:44:36.740Z,41.46
2023-02-02T02:45:32.300Z,41.68
2023-02-02T02:46:25.310Z,41.53
2023-02-02T02:47:20.867Z,41.67
2023-02-02T02:48:16.137Z,41.40
2023-02-02T02:49:09.802Z,41.30
2023-02-02T02:50:04.975Z,41.30
2023-02-02T02:51:06.838Z,41.79
2023-02-02T02:52:02.256Z,41.31
2023-02-02T02:53:02.599Z,41.48
2023-02-02T02:53:58.757Z,41.75
2023-02-02T02:54:53.411Z,41.52
2023-02-02T02:55:52.665Z,41.63
2023-02-02T02:56:56.986Z,41.55
2023-02-02T02:58:07.882Z,41.44
2023-02-02T02:59:06.842Z,41.39
2023-02-02T03:00:09.126Z,41.27
2023-02-02T03:01:09.361Z,41.48
2023-02-02T03:02:17.292Z,41.58
2023-02-02T03:03:17.350Z,41.63
2023-02-02T03:04:17.478Z,41.45
2023-02-02T03:05:19.636Z,41.92
2023-02-02T03:06:19.831Z,41.73
2023-02-02T03:07:18.921Z,41.45
2023-02-02T03:08:20.359Z,41.61
2023-02-02T03:09:15.487Z,41.80
2023-02-02T03:10:13.555Z,41.63
2023-02-02T03:11:06.877Z,41.95
2023-02-02T03:12:02.622Z,41.83
2023-02-02T03:12:55.880Z,41.46
2023-02-02T03:13:51.718Z,41.90
2023-02-02T03:14:44.289Z,41.37
2023-02-02T03:15:39.574Z,41.87
2023-02-02T03:16:32.359Z,41.77
2023-02-02T03:17:27.502Z,41.41
2023-02-02T03:18:23.841Z,41.21
2023-02-02T03:19:18.992Z,41.74
2023-02-02T03:20:12.174Z,41.78
2023-02-02T03:21:07.688Z,41.75
2023-02-02T03:22:00.276Z,41.49
2023-02-02T03:22:55.460Z,42.12
2023-02-02T03:23:48.069Z,42.04
2023-02-02T03:24:43.227Z,41.97
2023-02-02T03:25:35.778Z,41.63
2023-02-02T03:26:31.035Z,41.53
2023-02-02T03:27:23.674Z,41.92
2023-02-02T03:28:19.782Z,41.70
2023-02-02T03:29:12.435Z,41.80
2023-02-02T03:30:08.429Z,41.67
2023-02-02T03:31:01.673Z,41.97
2023-02-02T03:31:56.985Z,41.80
2023-02-02T03:32:50.150Z,41.96
2023-02-02T03:33:47.961Z,41.78
2023-02-02T03:34:40.535Z,41.75
2023-02-02T03:35:33.111Z,41.54
2023-02-02T03:36:28.340Z,41.96
2023-02-02T03:37:20.950Z,41.43
2023-02-02T03:38:16.145Z,42.02
2023-02-02T03:39:08.720Z,41.54
2023-02-02T03:40:03.871Z,41.61
2023-02-02T03:40:56.480Z,41.92
2023-02-02T03:41:51.624Z,41.95
2023-02-02T03:42:44.274Z,41.84
2023-02-02T03:43:39.495Z,41.89
2023-02-02T03:44:32.078Z,41.84
2023-02-02T03:45:30.262Z,41.93
2023-02-02T03:46:22.879Z,42.01
2023-02-02T03:47:18.062Z,41.83
2023-02-02T03:48:10.616Z,42.00
2023-02-02T03:49:08.443Z,42.01
2023-02-02T03:50:01.054Z,41.65
2023-02-02T03:50:56.245Z,41.79
2023-02-02T03:51:48.833Z,41.55
2023-02-02T03:52:41.438Z,41.61
2023-02-02T03:53:36.624Z,41.89
2023-02-02T03:54:29.243Z,41.79
2023-02-02T03:55:24.778Z,41.86
2023-02-02T03:56:19.393Z,41.71
2023-02-02T03:57:14.571Z,41.73
2023-02-02T03:58:07.119Z,41.73
2023-02-02T03:59:02.287Z,41.88
2023-02-02T03:59:54.855Z,41.87
2023-02-02T04:00:50.034Z,41.68
2023-02-02T04:01:42.651Z,41.83
2023-02-02T04:02:37.846Z,41.70
2023-02-02T04:03:30.615Z,41.71
2023-02-02T04:04:28.418Z,41.64
2023-02-02T04:05:20.970Z,41.67
2023-02-02T04:06:16.146Z,41.49
2023-02-02T04:07:08.732Z,41.11
2023-02-02T04:08:03.945Z,41.58
2023-02-02T04:08:56.536Z,41.82
2023-02-02T04:09:51.775Z,41.53
2023-02-02T04:10:44.380Z,41.44
2023-02-02T04:11:40.145Z,41.51
2023-02-02T04:12:32.774Z,41.18
2023-02-02T04:13:27.986Z,41.37
2023-02-02T04:14:20.894Z,41.29
2023-02-02T04:15:16.036Z,41.67
2023-02-02T04:16:08.628Z,41.73
2023-02-02T04:17:03.853Z,41.65
2023-02-02T04:17:56.433Z,41.75
2023-02-02T04:18:51.614Z,41.36
2023-02-02T04:19:46.790Z,41.43
2023-02-02T04:20:41.973Z,41.34
2023-02-02T04:21:34.554Z,41.51
2023-02-02T04:22:30.011Z,41.61
2023-02-02T04:23:22.605Z,41.45
2023-02-02T04:24:18.434Z,41.37
2023-02-02T04:25:11.031Z,41.75
2023-02-02T04:26:06.949Z,41.49
2023-02-02T04:26:59.511Z,41.33
2023-02-02T04:27:54.703Z,41.48
2023-02-02T04:28:47.251Z,41.92
2023-02-02T04:29:42.418Z,41.68
2023-02-02T04:30:35.023Z,41.54
2023-02-02T04:31:30.326Z,41.71
2023-02-02T04:32:22.929Z,41.39
2023-02-02T04:33:18.104Z,41.76
2023-02-02T04:34:10.760Z,41.51
2023-02-02T04:35:09.389Z,41.86
2023-02-02T04:36:01.984Z,41.45
2023-02-02T04:36:57.153Z,41.55
2023-02-02T04:37:49.742Z,41.41
2023-02-02T04:38:44.902Z,41.89
2023-02-02T04:39:37.513Z,41.66
2023-02-02T04:40:32.702Z,41.53
2023-02-02T04:41:25.269Z,41.55
2023-02-02T04:42:20.434Z,41.90
2023-02-02T04:43:13.322Z,41.77
2023-02-02T04:44:10.694Z,41.71
2023-02-02T04:45:03.518Z,41.87
2023-02-02T04:45:59.242Z,41.85
2023-02-02T04:46:51.826Z,41.71
2023-02-02T04:47:46.991Z,41.49
2023-02-02T04:48:41.062Z,41.59
2023-02-02T04:49:36.232Z,41.72
2023-02-02T04:50:31.754Z,41.73
2023-02-02T04:51:26.979Z,41.99
2023-02-02T04:52:19.574Z,41.80
2023-02-02T04:53:14.749Z,41.94
2023-02-02T04:54:08.109Z,41.51
2023-02-02T04:55:03.348Z,41.88
2023-02-02T04:55:56.496Z,41.91
2023-02-02T04:56:51.669Z,41.64
2023-02-02T04:57:44.336Z,41.70
2023-02-02T04:58:39.490Z,41.63
2023-02-02T04:59:32.047Z,41.45
2023-02-02T05:00:27.209Z,41.48
2023-02-02T05:01:21.071Z,41.80
2023-02-02T05:02:16.367Z,41.88
2023-02-02T05:03:08.988Z,41.76
2023-02-02T05:04:04.256Z,41.87
2023-02-02T05:04:56.850Z,41.45
2023-02-02T05:05:54.627Z,41.70
2023-02-02T05:06:47.210Z,41.74
2023-02-02T05:07:42.988Z,41.92
2023-02-02T05:08:36.020Z,41.93
2023-02-02T05:09:31.247Z,41.56
2023-02-02T05:10:23.879Z,41.50
2023-02-02T05:11:20.947Z,41.80
2023-02-02T05:12:13.535Z,41.78
2023-02-02T05:13:08.703Z,41.47
2023-02-02T05:14:01.382Z,41.78
2023-02-02T05:14:56.550Z,41.73
2023-02-02T05:15:49.236Z,41.81
2023-02-02T05:16:44.454Z,41.52
2023-02-02T05:17:37.106Z,41.41
2023-02-02T05:18:32.376Z,41.51
2023-02-02T05:19:25.402Z,41.74
2023-02-02T05:20:21.157Z,41.72
2023-02-02T05:21:16.306Z,41.61
2023-02-02T05:22:11.468Z,41.44
2023-02-02T05:23:04.118Z,41.27
2023-02-02T05:23:59.832Z,41.31
2023-02-02T05:24:52.399Z,41.29
2023-02-02T05:25:47.604Z,41.37
2023-02-02T05:26:40.224Z,41.20
2023-02-02T05:27:35.541Z,41.32
2023-02-02T05:28:29.455Z,41.56
2023-02-02T05:29:24.598Z,41.49
2023-02-02T05:30:18.186Z,41.17
2023-02-02T05:31:13.403Z,41.27
2023-02-02T05:32:06.076Z,41.29
2023-02-02T05:33:01.245Z,41.34
2023-02-02T05:33:53.831Z,41.51
2023-02-02T05:34:49.016Z,41.13
2023-02-02T05:35:41.652Z,41.61
2023-02-02T05:36:39.427Z,41.13
2023-02-02T05:37:32.001Z,41.28
2023-02-02T05:38:27.222Z,41.71
2023-02-02T05:39:19.851Z,41.72
2023-02-02T05:40:15.483Z,41.37
2023-02-02T05:41:08.095Z,41.34
2023-02-02T05:42:03.281Z,41.17
2023-02-02T05:42:56.011Z,41.30
2023-02-02T05:43:51.175Z,41.27
2023-02-02T05:44:43.749Z,41.18
2023-02-02T05:45:38.962Z,41.44
2023-02-02T05:46:31.589Z,41.62
2023-02-02T05:47:26.753Z,41.66
2023-02-02T05:48:19.557Z,41.61
2023-02-02T05:49:16.246Z,41.33
2023-02-02T05:50:10.137Z,41.29
2023-02-02T05:51:08.565Z,41.50
2023-02-02T05:52:04.224Z,41.42
2023-02-02T05:52:59.425Z,41.68
2023-02-02T05:53:51.971Z,41.26
2023-02-02T05:54:47.173Z,41.50
2023-02-02T05:55:39.820Z,41.33
2023-02-02T05:56:34.975Z,41.38
2023-02-02T05:57:28.127Z,41.41
2023-02-02T05:58:23.275Z,41.37
2023-02-02T05:59:15.931Z,41.20
2023-02-02T06:00:12.846Z,41.60
2023-02-02T06:01:05.656Z,41.61
2023-02-02T06:02:00.857Z,41.49
2023-02-02T06:02:53.493Z,41.20
2023-02-02T06:03:48.740Z,41.24
2023-02-02T06:04:41.407Z,41.61
2023-02-02T06:05:36.592Z,41.72
2023-02-02T06:06:29.166Z,41.51
2023-02-02T06:07:26.968Z,41.82
2023-02-02T06:08:19.611Z,41.43
2023-02-02T06:09:14.893Z,41.56
2023-02-02T06:10:08.150Z,41.72
2023-02-02T06:11:03.317Z,41.61
2023-02-02T06:11:55.887Z,41.61
2023-02-02T06:12:51.083Z,41.44
2023-02-02T06:13:45.832Z,41.31
2023-02-02T06:14:41.219Z,41.63
2023-02-02T06:15:34.855Z,41.32
2023-02-02T06:16:30.188Z,41.67
2023-02-02T06:17:22.780Z,41.29
2023-02-02T06:18:17.969Z,41.48
2023-02-02T06:19:10.539Z,41.28
2023-02-02T06:20:05.828Z,41.55
2023-02-02T06:20:58.800Z,41.68
2023-02-02T06:21:54.000Z,41.26
2023-02-02T06:22:49.184Z,41.42
2023-02-02T06:23:46.047Z,41.42
2023-02-02T06:24:38.654Z,41.26
2023-02-02T06:25:34.484Z,41.57
2023-02-02T06:26:27.217Z,41.34
2023-02-02T06:27:22.528Z,41.48
2023-02-02T06:28:15.075Z,41.37
2023-02-02T06:29:10.247Z,41.35
2023-02-02T06:30:02.903Z,41.57
2023-02-02T06:30:58.133Z,41.28
2023-02-02T06:31:50.844Z,41.26
2023-02-02T06:32:46.070Z,41.26
2023-02-02T06:33:38.703Z,41.09
2023-02-02T06:34:33.876Z,41.25
2023-02-02T06:35:26.867Z,41.47
2023-02-02T06:36:22.244Z,41.41
2023-02-02T06:37:14.823Z,41.16
2023-02-02T06:38:13.014Z,41.20
2023-02-02T06:39:08.101Z,41.22
2023-02-02T06:40:03.273Z,41.23
2023-02-02T06:40:56.130Z,41.44
2023-02-02T06:41:52.182Z,41.51
2023-02-02T06:42:44.739Z,41.85
2023-02-02T06:43:39.899Z,41.48
2023-02-02T06:44:32.488Z,41.43
2023-02-02T06:45:27.713Z,41.47
2023-02-02T06:46:20.379Z,41.34
2023-02-02T06:47:15.543Z,41.58
2023-02-02T06:48:11.091Z,41.50
2023-02-02T06:49:06.297Z,41.37
2023-02-02T06:49:58.868Z,41.69
2023-02-02T06:50:54.117Z,41.42
2023-02-02T06:51:47.660Z,41.81
2023-02-02T06:52:42.807Z,41.56
2023-02-02T06:53:38.008Z,41.78
2023-02-02T06:54:33.187Z,41.38
2023-02-02T06:55:26.238Z,41.82
2023-02-02T06:56:22.976Z,41.82
2023-02-02T06:57:15.530Z,41.78
2023-02-02T06:58:10.711Z,41.34
2023-02-02T06:59:03.322Z,41.71
2023-02-02T06:59:58.490Z,41.72
2023-02-02T07:00:51.140Z,42.23
2023-02-02T07:01:46.425Z,42.33
2023-02-02T07:02:39.628Z,42.78
2023-02-02T07:03:35.395Z,42.60
2023-02-02T07:04:27.998Z,42.73
2023-02-02T07:05:24.352Z,42.56
2023-02-02T07:06:18.711Z,42.72
2023-02-02T07:07:13.874Z,42.38
2023-02-02T07:08:06.523Z,42.65
2023-02-02T07:09:04.299Z,42.27
2023-02-02T07:09:58.363Z,42.33
2023-02-02T07:11:12.706Z,42.38
2023-02-02T07:12:09.420Z,42.46
2023-02-02T07:13:02.008Z,42.82
2023-02-02T07:13:57.197Z,42.78
2023-02-02T07:14:49.754Z,42.40
2023-02-02T07:15:44.921Z,42.55
2023-02-02T07:16:40.201Z,42.73
2023-02-02T07:17:32.760Z,42.56
2023-02-02T07:18:28.023Z,42.82
2023-02-02T07:19:20.575Z,42.47
2023-02-02T07:20:15.754Z,42.88
2023-02-02T07:21:10.715Z,42.50
2023-02-02T07:22:06.099Z,42.63
2023-02-02T07:22:58.651Z,42.85
2023-02-02T07:23:54.312Z,42.81
2023-02-02T07:24:49.483Z,43.04
2023-02-02T07:25:44.676Z,42.55
2023-02-02T07:26:37.484Z,42.50
2023-02-02T07:27:33.145Z,42.58
2023-02-02T07:28:27.391Z,42.83
2023-02-02T07:29:22.602Z,42.88
2023-02-02T07:30:16.196Z,42.79
2023-02-02T07:31:19.604Z,42.44
2023-02-02T07:32:13.520Z,42.39
2023-02-02T07:33:08.686Z,42.38
2023-02-02T07:34:01.248Z,42.77
2023-02-02T07:34:56.462Z,42.58
2023-02-02T07:35:49.004Z,42.36
2023-02-02T07:36:44.173Z,42.53
2023-02-02T07:37:37.949Z,42.27
2023-02-02T07:38:34.921Z,42.19
2023-02-02T07:39:27.475Z,42.35
2023-02-02T07:40:25.432Z,42.68
2023-02-02T07:41:20.598Z,42.29
2023-02-02T07:42:15.888Z,42.63
2023-02-02T07:43:08.632Z,42.12
2023-02-02T07:44:03.872Z,42.32
2023-02-02T07:44:56.480Z,42.45
2023-02-02T07:45:53.626Z,42.32
2023-02-02T07:46:47.471Z,42.08
2023-02-02T07:47:42.758Z,42.30
2023-02-02T07:48:35.646Z,42.27
2023-02-02T07:49:30.919Z,42.02
2023-02-02T07:50:23.610Z,42.24
2023-02-02T07:51:20.106Z,41.97
2023-02-02T07:52:12.663Z,42.26
2023-02-02T07:53:07.842Z,42.26
2023-02-02T07:54:00.459Z,42.10
2023-02-02T07:55:05.388Z,42.06
2023-02-02T07:56:14.771Z,42.05
2023-02-02T07:57:07.598Z,42.41
2023-02-02T07:58:03.091Z,42.41
2023-02-02T07:58:56.695Z,42.33
2023-02-02T07:59:52.460Z,42.10
2023-02-02T08:00:45.116Z,42.40
2023-02-02T08:01:40.453Z,42.24
2023-02-02T08:02:33.102Z,42.20
2023-02-02T08:03:28.355Z,42.49
2023-02-02T08:04:23.519Z,41.90
2023-02-02T08:05:16.527Z,42.01
2023-02-02T08:06:13.606Z,41.88
2023-02-02T08:07:06.214Z,42.26
2023-02-02T08:08:01.443Z,42.09
2023-02-02T08:08:56.734Z,42.14
2023-02-02T08:09:49.638Z,42.36
2023-02-02T08:10:50.796Z,42.01
2023-02-02T08:11:45.964Z,42.28
2023-02-02T08:12:41.148Z,42.25
2023-02-02T08:13:33.723Z,42.23
2023-02-02T08:14:28.911Z,41.98
2023-02-02T08:15:21.639Z,42.20
2023-02-02T08:16:16.918Z,42.13
2023-02-02T08:17:09.589Z,42.33
2023-02-02T08:18:04.759Z,41.97
2023-02-02T08:19:00.659Z,42.36
2023-02-02T08:19:53.504Z,42.08
2023-02-02T08:20:49.544Z,42.35
2023-02-02T08:21:44.712Z,42.10
2023-02-02T08:22:37.297Z,42.33
2023-02-02T08:23:32.608Z,42.49
2023-02-02T08:24:27.831Z,42.24
2023-02-02T08:25:20.622Z,42.41
2023-02-02T08:26:18.297Z,42.60
2023-02-02T08:27:13.618Z,42.40
2023-02-02T08:28:08.991Z,42.19
2023-02-02T08:29:06.523Z,42.55
2023-02-02T08:30:01.771Z,42.49
2023-02-02T08:30:54.371Z,42.22
2023-02-02T08:31:49.612Z,42.26
2023-02-02T08:32:42.218Z,42.19
2023-02-02T08:33:38.580Z,42.56
2023-02-02T08:34:36.931Z,42.40
2023-02-02T08:35:29.652Z,42.60
2023-02-02T08:36:26.568Z,42.09
2023-02-02T08:37:19.167Z,42.29
2023-02-02T08:38:14.356Z,42.58
2023-02-02T08:39:11.281Z,42.22
2023-02-02T08:40:04.427Z,42.38
2023-02-02T08:41:00.287Z,42.22
2023-02-02T08:41:57.884Z,42.50
2023-02-02T08:42:56.185Z,42.38
2023-02-02T08:43:51.586Z,42.46
2023-02-02T08:46:00.386Z,42.30
2023-02-02T08:46:02.591Z,42.41
2023-02-02T08:47:00.220Z,42.18
2023-02-02T08:48:09.300Z,42.52
2023-02-02T08:49:06.374Z,42.46
2023-02-02T08:49:58.943Z,42.55
2023-02-02T08:50:57.639Z,42.14
2023-02-02T08:51:52.788Z,42.07
2023-02-02T08:52:45.446Z,42.53
2023-02-02T08:53:41.091Z,42.26
2023-02-02T08:54:33.910Z,42.55
2023-02-02T08:55:29.063Z,42.32
2023-02-02T08:56:22.953Z,42.53
2023-02-02T08:57:18.121Z,42.13
2023-02-02T08:58:13.308Z,42.57
2023-02-02T08:59:08.494Z,42.31
2023-02-02T09:00:01.060Z,42.17
2023-02-02T09:00:56.384Z,42.18
2023-02-02T09:01:49.005Z,42.55
2023-02-02T09:02:44.366Z,42.05
2023-02-02T09:03:39.325Z,42.21
2023-02-02T09:04:34.458Z,42.38
2023-02-02T09:05:27.346Z,42.18
2023-02-02T09:06:22.968Z,42.27
2023-02-02T09:07:20.353Z,42.09
2023-02-02T09:08:13.782Z,42.50
2023-02-02T09:09:10.165Z,42.41
2023-02-02T09:10:02.812Z,42.50
2023-02-02T09:10:57.961Z,42.53
2023-02-02T09:11:53.128Z,42.15
2023-02-02T09:12:45.703Z,42.43
2023-02-02T09:13:45.677Z,42.12
2023-02-02T09:14:40.829Z,42.55
2023-02-02T09:15:33.442Z,42.15
2023-02-02T09:16:29.833Z,42.24
2023-02-02T09:17:24.200Z,42.04
2023-02-02T09:18:19.358Z,42.33
2023-02-02T09:19:14.897Z,42.17
2023-02-02T09:20:08.292Z,42.33
2023-02-02T09:21:04.132Z,42.24
2023-02-02T09:21:56.701Z,42.36
2023-02-02T09:22:51.914Z,41.93
2023-02-02T09:23:48.150Z,42.33
2023-02-02T09:24:43.326Z,41.95
2023-02-02T09:25:35.903Z,41.91
2023-02-02T09:26:32.275Z,41.99
2023-02-02T09:27:25.070Z,42.00
2023-02-02T09:28:20.232Z,42.09
2023-02-02T09:29:19.400Z,42.23
2023-02-02T09:30:13.411Z,42.28
2023-02-02T09:31:08.674Z,41.92
2023-02-02T09:32:03.942Z,41.88
2023-02-02T09:32:59.154Z,41.80
2023-02-02T09:33:51.753Z,42.12
2023-02-02T09:34:46.913Z,41.99
2023-02-02T09:35:39.802Z,42.16
2023-02-02T09:36:35.676Z,42.29
2023-02-02T09:37:28.296Z,42.27
2023-02-02T09:38:23.458Z,41.90
2023-02-02T09:39:19.610Z,41.88
2023-02-02T09:40:17.803Z,41.88
2023-02-02T09:41:26.368Z,42.02
2023-02-02T09:42:43.807Z,41.81
2023-02-02T09:43:44.813Z,42.07
2023-02-02T09:44:59.736Z,41.75
2023-02-02T09:45:59.855Z,42.13
2023-02-02T09:47:00.782Z,42.05
2023-02-02T09:47:58.639Z,41.88
2023-02-02T09:48:58.851Z,42.16
2023-02-02T09:49:57.040Z,41.83
2023-02-02T09:50:55.543Z,42.09
2023-02-02T09:51:56.885Z,42.14
2023-02-02T09:52:58.259Z,42.10
2023-02-02T09:53:56.483Z,41.95
2023-02-02T09:54:51.094Z,41.91
2023-02-02T09:55:47.570Z,42.18
2023-02-02T09:56:43.278Z,41.92
2023-02-02T09:57:41.153Z,42.02
2023-02-02T09:58:36.371Z,41.78
2023-02-02T09:59:36.665Z,42.12
2023-02-02T10:00:35.671Z,42.14
2023-02-02T10:01:34.398Z,41.75
2023-02-02T10:02:30.470Z,42.17
2023-02-02T10:03:30.296Z,41.73
2023-02-02T10:04:28.633Z,42.22
2023-02-02T10:05:25.834Z,42.14
2023-02-02T10:06:29.883Z,42.01
2023-02-02T10:07:36.406Z,42.06
2023-02-02T10:08:35.388Z,41.84
2023-02-02T10:09:36.153Z,42.01
2023-02-02T10:10:32.763Z,41.81
2023-02-02T10:11:35.485Z,42.03
2023-02-02T10:12:37.214Z,42.26
2023-02-02T10:13:33.635Z,41.96
2023-02-02T10:14:31.101Z,42.03
2023-02-02T10:15:36.869Z,42.04
2023-02-02T10:16:30.583Z,42.19
2023-02-02T10:17:40.710Z,41.84
2023-02-02T10:18:44.763Z,41.94
2023-02-02T10:19:39.711Z,42.46
2023-02-02T10:20:43.807Z,42.68
2023-02-02T10:21:44.026Z,42.24
2023-02-02T10:22:36.594Z,42.22
2023-02-02T10:23:33.948Z,41.93
2023-02-02T10:24:32.078Z,41.89
2023-02-02T10:25:27.084Z,41.27
2023-02-02T10:26:24.223Z,41.49
2023-02-02T10:27:18.048Z,41.13
2023-02-02T10:28:20.571Z,40.86
2023-02-02T10:29:19.478Z,40.59
2023-02-02T10:30:16.892Z,40.73
2023-02-02T10:31:22.598Z,40.39
2023-02-02T10:32:23.242Z,40.72
2023-02-02T10:33:21.740Z,40.21
2023-02-02T10:34:25.722Z,40.06
2023-02-02T10:35:32.583Z,40.33
2023-02-02T10:36:31.791Z,40.20
2023-02-02T10:37:32.030Z,40.09
2023-02-02T10:38:28.542Z,39.87
2023-02-02T10:39:29.455Z,39.86
2023-02-02T10:40:35.279Z,40.20
2023-02-02T10:41:34.124Z,39.89
2023-02-02T10:42:33.270Z,40.05
2023-02-02T10:43:57.559Z,40.04
2023-02-02T10:44:56.126Z,39.55
2023-02-02T10:45:51.066Z,39.46
2023-02-02T10:46:51.633Z,39.48
2023-02-02T10:47:44.290Z,39.75
2023-02-02T10:48:39.491Z,39.72
2023-02-02T10:49:34.747Z,39.81
2023-02-02T10:50:29.935Z,39.76
2023-02-02T10:51:27.635Z,39.77
2023-02-02T10:52:27.205Z,39.73
2023-02-02T10:53:20.167Z,39.65
2023-02-02T10:54:27.503Z,39.69
2023-02-02T10:55:28.692Z,39.75
2023-02-02T10:56:24.921Z,39.72
2023-02-02T10:57:23.851Z,39.51
2023-02-02T10:58:25.387Z,39.33
2023-02-02T10:59:22.131Z,39.35
2023-02-02T11:00:23.979Z,39.29
2023-02-02T11:01:22.797Z,39.22
2023-02-02T11:02:21.074Z,39.67
2023-02-02T11:03:19.748Z,39.33
2023-02-02T11:04:27.351Z,39.37
2023-02-02T11:05:37.851Z,39.70
2023-02-02T11:06:45.396Z,39.41
2023-02-02T11:07:40.535Z,39.56
2023-02-02T11:08:38.247Z,39.77
2023-02-02T11:09:34.801Z,39.41
2023-02-02T11:10:27.709Z,39.48
2023-02-02T11:11:25.447Z,39.70
2023-02-02T11:12:26.161Z,39.60
2023-02-02T11:13:26.913Z,39.49
2023-02-02T11:14:29.494Z,39.66
2023-02-02T11:15:30.295Z,39.61
2023-02-02T11:16:35.580Z,39.43
2023-02-02T11:17:39.645Z,39.68
2023-02-02T11:18:32.386Z,39.21
2023-02-02T11:19:31.851Z,39.72
2023-02-02T11:20:35.338Z,39.22
2023-02-02T11:21:32.459Z,39.54
2023-02-02T11:22:28.700Z,39.29
2023-02-02T11:23:24.239Z,39.31
2023-02-02T11:24:22.490Z,39.63
2023-02-02T11:25:30.772Z,39.41
2023-02-02T11:26:27.323Z,39.65
2023-02-02T11:27:21.993Z,39.22
2023-02-02T11:28:22.795Z,39.29
2023-02-02T11:29:18.134Z,39.26
2023-02-02T11:30:21.727Z,39.38
2023-02-02T11:31:14.363Z,39.48
2023-02-02T11:32:27.636Z,39.50
2023-02-02T11:33:28.174Z,39.60
2023-02-02T11:34:25.429Z,39.50
2023-02-02T11:35:21.172Z,39.62
2023-02-02T11:36:22.893Z,39.19
2023-02-02T11:37:16.844Z,39.37
2023-02-02T11:38:16.789Z,39.28
2023-02-02T11:39:16.766Z,39.45
2023-02-02T11:40:29.301Z,39.06
2023-02-02T11:41:24.493Z,39.56
2023-02-02T11:42:18.403Z,39.49
2023-02-02T11:43:21.015Z,39.60
2023-02-02T11:44:26.902Z,39.52
2023-02-02T11:45:24.205Z,39.27
2023-02-02T11:46:23.603Z,39.43
2023-02-02T11:47:20.219Z,39.33
2023-02-02T11:48:19.265Z,39.29
2023-02-02T11:49:19.125Z,39.51
2023-02-02T11:50:21.029Z,39.30
2023-02-02T11:51:22.683Z,39.31
2023-02-02T11:52:20.191Z,39.46
2023-02-02T11:53:22.499Z,38.51
2023-02-02T11:54:20.798Z,39.84
2023-02-02T11:55:19.555Z,40.74
2023-02-02T11:56:22.429Z,39.80
2023-02-02T11:57:18.263Z,39.84
2023-02-02T11:58:27.792Z,39.77
2023-02-02T11:59:37.553Z,39.44
2023-02-02T12:00:31.542Z,39.63
2023-02-02T12:01:28.524Z,39.22
2023-02-02T12:02:28.962Z,39.02
2023-02-02T12:03:30.250Z,39.36
2023-02-02T12:04:26.149Z,39.31
2023-02-02T12:05:38.983Z,39.21
2023-02-02T12:06:35.666Z,39.24
2023-02-02T12:07:32.325Z,39.48